Fitzhugh, OK

2:10 AM CST on February 28, 2015 (GMT -0600)
Ada Municipal | Change Station
CLOSE
Current Station
Airport
Location: Ada,
Elevation: 1017 ft
Nearby Weather Stations
Active Advisory: Winter Weather Advisory Active Notice: Record Report, Local Storm Report

Elev 1017 ft 34.80 °N, 96.67 °W | Updated 15 minutes ago

Overcast
Overcast
21 °F
Feels Like 16 °F
N
4
Wind Variable Wind from ENE

Today
High -- | Low -- °F
--% Chance of Precip.
Yesterday
High -- | Low -- °F
Precip. -- in
6:57 AM 6:21 PM
Waxing Gibbous, 75% visible
Pressure 30.44 in
Visibility 10.0 miles
Clouds Overcast 5500 ft
Windchill 16 °F
Dew Point 19 °F
Humidity 93%
Rainfall 0.00 in
Snow Depth Not available.
UV 0 out of 12
Pollen 3.70 out of 12
Air Quality Not available.
Flu Activity Not available.
METAR KADH 280755Z AUTO 07003KT 10SM OVC055 M06/M07 A3044 RMK AO2

More Conditions Fewer Conditions

Pressure 30.44 in
Visibility 10.0 miles
Clouds Overcast 5500 ft
Windchill 16 °F
Dew Point 19 °F
Humidity 93%
Rainfall 0.00 in
Snow Depth Not available.
UV 0 out of 12
Pollen 3.70 out of 12
Air Quality Not available.
Flu Activity Not available.
METAR KADH 280755Z AUTO 07003KT 10SM OVC055 M06/M07 A3044 RMK AO2

More Conditions Fewer Conditions

10-Day Weather Forecast

Almanac

Astronomy

Feb. 28, 2015 Rise Set
Actual Time
Civil Twilight
Nautical Twilight
Astronomical Twilight
Moon
Length of Visible Light
Length of Day
Tomorrow will be .
, % of the Moon is Illuminated

Today's Extremes

State Highs State Lows

Community

WunderPhotos

Upload Photos

1,800,984 photos uploaded!

WunderBlogs® & News

Nearby

Air Quality

  Air Quality AQ Index Pollutant
Not available.

Snow Depth

Station Depth Elevation

Earthquake Activity

City Distance Mag. Time & Date
Minimum magnitude displayed is 2.5.

Coastal Water Temperatures

Place Temperature

Nearby Weather Stations

Winter Weather Advisory
Statement as of 6:01 PM CST on February 27, 2015

... Winter Weather Advisory now in effect until midnight CST
tonight...
... Winter Weather Advisory in effect from 6 am to 6 PM CST
Saturday...

The National Weather Service in Norman has issued a Winter
Weather Advisory for snow... which is in effect from 6 am to 6 PM
CST Saturday. The Winter Weather Advisory is now in effect until
midnight CST tonight.

* Timing: snow will slowly decrease this evening... but another
round of snow is expected Saturday morning through early
Saturday evening.

* Main impact: 1 to 2 inches of new snowfall.

* Other impacts: slick and hazardous roads are expected.

Precautionary/preparedness actions...

Be careful if you have to travel. Even small amounts of ice and
snow can make roads and sidewalks slick and dangerous.